createdAt,value
2023-05-12T00:01:20.039Z,17.56
2023-05-12T00:04:22.128Z,17.58
2023-05-12T00:07:24.193Z,17.53
2023-05-12T00:10:27.650Z,17.53
2023-05-12T00:13:30.096Z,17.49
2023-05-12T00:16:32.382Z,17.50
2023-05-12T00:19:35.909Z,17.46
2023-05-12T00:22:39.321Z,17.47
2023-05-12T00:25:41.375Z,17.44
2023-05-12T00:28:43.375Z,17.45
2023-05-12T00:31:45.448Z,17.41
2023-05-12T00:34:47.693Z,17.44
2023-05-12T00:37:49.603Z,17.45
2023-05-12T00:40:51.785Z,17.41
2023-05-12T00:43:53.927Z,17.42
2023-05-12T00:46:56.301Z,17.43
2023-05-12T00:49:59.218Z,17.45
2023-05-12T00:53:02.161Z,17.46
2023-05-12T00:56:05.136Z,17.47
2023-05-12T00:59:07.429Z,17.45
2023-05-12T01:02:10.606Z,17.45
2023-05-12T01:05:14.009Z,17.46
2023-05-12T01:08:17.682Z,17.37
2023-05-12T01:11:20.344Z,17.33
2023-05-12T01:14:22.333Z,17.30
2023-05-12T01:17:35.921Z,17.29
2023-05-12T01:20:39.768Z,17.25
2023-05-12T01:23:46.813Z,17.31
2023-05-12T01:26:49.057Z,17.27
2023-05-12T01:29:53.003Z,17.30
2023-05-12T01:32:55.686Z,17.27
2023-05-12T01:35:57.739Z,17.34
2023-05-12T01:39:00.290Z,17.41
2023-05-12T01:42:03.440Z,17.38
2023-05-12T01:45:05.863Z,17.32
2023-05-12T01:48:08.180Z,17.36
2023-05-12T01:51:11.028Z,17.31
2023-05-12T01:54:13.324Z,17.36
2023-05-12T01:57:15.851Z,17.30
2023-05-12T02:00:18.619Z,17.19
2023-05-12T02:03:23.369Z,17.19
2023-05-12T02:06:28.673Z,17.18
2023-05-12T02:09:31.698Z,17.22
2023-05-12T02:12:36.547Z,17.22
2023-05-12T02:15:38.917Z,17.17
2023-05-12T02:18:41.164Z,17.21
2023-05-12T02:21:46.162Z,17.17
2023-05-12T02:24:48.212Z,17.18
2023-05-12T02:27:51.678Z,17.27
2023-05-12T02:30:54.779Z,17.26
2023-05-12T02:33:57.266Z,17.26
2023-05-12T02:36:59.431Z,17.26
2023-05-12T02:40:01.738Z,17.30
2023-05-12T02:43:04.274Z,17.22
2023-05-12T02:46:06.501Z,17.20
2023-05-12T02:49:08.764Z,17.11
2023-05-12T02:52:10.805Z,16.95
2023-05-12T02:55:12.900Z,17.05
2023-05-12T02:58:15.076Z,17.08
2023-05-12T03:01:17.182Z,17.08
2023-05-12T03:04:19.284Z,17.04
2023-05-12T03:07:21.763Z,17.07
2023-05-12T03:10:24.030Z,17.08
2023-05-12T03:13:26.064Z,16.99
2023-05-12T03:16:28.272Z,17.18
2023-05-12T03:19:30.713Z,17.18
2023-05-12T03:22:33.061Z,17.24
2023-05-12T03:25:35.245Z,17.14
2023-05-12T03:28:37.809Z,17.19
2023-05-12T03:31:39.914Z,17.24
2023-05-12T03:34:41.971Z,17.19
2023-05-12T03:37:47.882Z,17.09
2023-05-12T03:40:52.942Z,17.11
2023-05-12T03:43:55.892Z,17.44
2023-05-12T03:46:58.197Z,17.90
2023-05-12T03:50:01.619Z,18.40
2023-05-12T03:53:04.696Z,18.63
2023-05-12T03:56:07.229Z,18.80
2023-05-12T03:59:12.388Z,18.74
2023-05-12T04:02:15.221Z,18.95
2023-05-12T04:05:19.645Z,19.47
2023-05-12T04:08:21.858Z,19.96
2023-05-12T04:11:24.006Z,19.84
2023-05-12T04:14:35.184Z,19.69
2023-05-12T04:17:44.212Z,19.56
2023-05-12T04:20:48.178Z,19.38
2023-05-12T04:23:54.025Z,19.06
2023-05-12T04:26:59.676Z,18.95
2023-05-12T04:30:01.871Z,19.12
2023-05-12T04:33:10.202Z,19.04
2023-05-12T04:36:15.758Z,19.04
2023-05-12T04:39:18.853Z,19.11
2023-05-12T04:42:21.067Z,19.22
2023-05-12T04:45:23.429Z,19.30
2023-05-12T04:48:29.330Z,19.33
2023-05-12T04:51:32.317Z,19.34
2023-05-12T04:54:34.976Z,19.37
2023-05-12T04:57:47.235Z,19.36
2023-05-12T05:00:49.457Z,19.41
2023-05-12T05:03:52.495Z,19.36
2023-05-12T05:06:55.815Z,19.30
2023-05-12T05:09:58.804Z,19.39
2023-05-12T05:13:01.684Z,19.45
2023-05-12T05:16:04.990Z,19.45
2023-05-12T05:19:15.927Z,19.45
2023-05-12T05:22:22.934Z,19.52
2023-05-12T05:25:26.626Z,19.51
2023-05-12T05:28:31.073Z,19.49
2023-05-12T05:31:33.377Z,19.46
2023-05-12T05:34:35.767Z,19.44
2023-05-12T05:37:39.075Z,19.39
2023-05-12T05:40:52.366Z,19.35
2023-05-12T05:43:56.178Z,19.40
2023-05-12T05:46:58.744Z,19.41
2023-05-12T05:50:02.297Z,19.40
2023-05-12T05:53:09.170Z,19.32
2023-05-12T05:56:12.774Z,19.33
2023-05-12T05:59:14.795Z,19.41
2023-05-12T06:02:18.037Z,19.42
2023-05-12T06:05:22.326Z,19.50
2023-05-12T06:08:26.511Z,19.50
2023-05-12T06:11:29.654Z,19.49
2023-05-12T06:14:31.747Z,19.47
2023-05-12T06:17:39.870Z,19.54
2023-05-12T06:20:43.577Z,19.60
2023-05-12T06:23:45.603Z,19.54
2023-05-12T06:26:48.562Z,19.58
2023-05-12T06:29:52.198Z,19.62
2023-05-12T06:32:54.734Z,19.65
2023-05-12T06:36:03.725Z,19.53
2023-05-12T06:39:08.426Z,19.50
2023-05-12T06:42:11.843Z,19.54
2023-05-12T06:45:18.893Z,19.59
2023-05-12T06:48:22.202Z,19.67
2023-05-12T06:51:25.324Z,19.68
2023-05-12T06:54:29.928Z,19.66
2023-05-12T06:57:34.803Z,19.63
2023-05-12T07:00:39.036Z,19.64
2023-05-12T07:03:41.531Z,19.65
2023-05-12T07:08:01.340Z,19.61
2023-05-12T07:11:05.155Z,19.66
2023-05-12T07:14:07.278Z,19.72
2023-05-12T07:17:09.369Z,19.68
2023-05-12T07:20:13.263Z,19.69
2023-05-12T07:23:16.905Z,19.69
2023-05-12T07:26:19.452Z,19.78
2023-05-12T07:29:22.633Z,19.87
2023-05-12T07:32:27.925Z,19.90
2023-05-12T07:35:31.429Z,19.97
2023-05-12T07:38:33.488Z,20.03
2023-05-12T07:41:35.779Z,20.07
2023-05-12T07:44:39.139Z,20.06
2023-05-12T07:47:41.345Z,20.17
2023-05-12T07:50:43.312Z,20.25
2023-05-12T07:53:45.464Z,20.33
2023-05-12T07:56:47.540Z,20.42
2023-05-12T07:59:49.737Z,20.37
2023-05-12T08:02:52.186Z,20.32
2023-05-12T08:05:54.645Z,20.28
2023-05-12T08:08:58.475Z,20.30
2023-05-12T08:12:01.575Z,20.30
2023-05-12T08:15:04.021Z,20.28
2023-05-12T08:18:06.135Z,20.25
2023-05-12T08:21:08.268Z,20.26
2023-05-12T08:24:10.326Z,20.25
2023-05-12T08:27:12.841Z,20.25
2023-05-12T08:30:16.063Z,20.20
2023-05-12T08:33:18.069Z,20.17
2023-05-12T08:36:20.300Z,20.01
2023-05-12T08:39:22.629Z,19.97
2023-05-12T08:42:40.363Z,20.41
2023-05-12T08:45:42.947Z,20.60
2023-05-12T08:48:50.948Z,20.77
2023-05-12T08:51:58.171Z,20.87
2023-05-12T08:55:07.187Z,20.93
2023-05-12T09:02:18.749Z,20.93
2023-05-12T09:05:21.207Z,20.90
2023-05-12T09:08:26.023Z,20.89
2023-05-12T09:11:34.481Z,20.92
2023-05-12T09:14:39.647Z,20.89
2023-05-12T09:17:45.273Z,20.82
2023-05-12T09:20:47.566Z,20.83
2023-05-12T09:24:06.573Z,20.86
2023-05-12T09:27:08.865Z,20.76
2023-05-12T09:30:12.250Z,20.77
2023-05-12T09:33:14.660Z,20.72
2023-05-12T09:36:22.515Z,20.76
2023-05-12T09:42:46.730Z,20.75
2023-05-12T09:46:02.889Z,20.75
2023-05-12T09:49:11.572Z,20.74
2023-05-12T09:52:17.035Z,20.72
2023-05-12T09:55:21.687Z,20.76
2023-05-12T09:58:27.198Z,20.83
2023-05-12T10:01:35.596Z,20.87
2023-05-12T10:08:14.269Z,20.92
2023-05-12T10:11:23.792Z,20.96
2023-05-12T10:14:26.334Z,20.96
2023-05-12T10:17:32.223Z,21.03
2023-05-12T10:20:36.620Z,21.10
2023-05-12T10:24:07.046Z,21.15
2023-05-12T10:27:10.273Z,21.12
2023-05-12T10:30:16.839Z,21.09
2023-05-12T10:33:25.529Z,21.11
2023-05-12T10:36:50.543Z,21.08
2023-05-12T11:05:15.948Z,21.91
2023-05-12T11:08:19.829Z,22.46
2023-05-12T11:11:25.219Z,22.65
2023-05-12T11:14:28.384Z,22.65
2023-05-12T11:17:39.852Z,22.62
2023-05-12T11:20:49.794Z,22.56
2023-05-12T11:23:57.073Z,22.39
2023-05-12T11:27:25.087Z,22.37
2023-05-12T11:31:26.492Z,22.22
2023-05-12T11:34:50.112Z,22.03
2023-05-12T11:37:52.083Z,21.89
2023-05-12T11:41:41.245Z,21.80
2023-05-12T11:44:53.182Z,21.59
2023-05-12T11:56:10.029Z,21.61
2023-05-12T11:59:38.760Z,21.54
2023-05-12T12:02:43.521Z,21.54
2023-05-12T12:05:59.034Z,21.46
2023-05-12T12:09:01.129Z,21.46
2023-05-12T12:12:05.356Z,21.47
2023-05-12T12:15:08.528Z,21.46
2023-05-12T12:18:10.608Z,21.39
2023-05-12T12:21:12.638Z,21.44
2023-05-12T12:24:14.737Z,21.50
2023-05-12T12:27:16.787Z,21.75
2023-05-12T12:30:19.237Z,21.88
2023-05-12T12:33:21.379Z,21.94
2023-05-12T12:36:23.503Z,21.94
2023-05-12T12:39:25.575Z,21.83
2023-05-12T12:42:27.594Z,21.78
2023-05-12T12:45:30.088Z,21.75
2023-05-12T12:48:32.506Z,21.69
2023-05-12T12:51:45.144Z,21.65
2023-05-12T12:54:47.748Z,21.58
2023-05-12T12:57:50.214Z,21.55
2023-05-12T13:00:52.682Z,21.48
2023-05-12T13:03:57.254Z,21.40
2023-05-12T13:06:59.326Z,21.33
2023-05-12T13:10:01.453Z,21.34
2023-05-12T13:13:03.611Z,21.38
2023-05-12T13:16:05.966Z,21.33
2023-05-12T13:19:10.160Z,21.33
2023-05-12T13:22:12.258Z,21.36
2023-05-12T13:25:14.284Z,21.41
2023-05-12T13:28:16.318Z,21.50
2023-05-12T13:31:27.069Z,21.49
2023-05-12T13:34:29.496Z,21.37
2023-05-12T13:37:34.156Z,21.20
2023-05-12T13:40:37.353Z,21.11
2023-05-12T13:43:40.512Z,21.02
2023-05-12T13:46:42.808Z,20.94
2023-05-12T13:49:45.384Z,20.91
2023-05-12T13:52:47.843Z,20.87
2023-05-12T13:55:55.498Z,20.85
2023-05-12T13:58:58.658Z,20.70
2023-05-12T14:02:01.337Z,20.73
2023-05-12T14:05:04.160Z,20.73
2023-05-12T14:08:06.515Z,20.70
2023-05-12T14:11:34.032Z,20.64
2023-05-12T14:14:34.478Z,20.70
2023-05-12T14:17:36.911Z,20.64
2023-05-12T14:20:40.261Z,20.61
2023-05-12T14:23:45.480Z,20.61
2023-05-12T14:26:47.741Z,20.60
2023-05-12T14:29:51.393Z,20.58
2023-05-12T14:32:53.675Z,20.55
2023-05-12T14:36:06.436Z,20.52
2023-05-12T14:39:14.467Z,20.45
2023-05-12T14:42:18.052Z,20.42
2023-05-12T14:45:20.279Z,20.36
2023-05-12T14:48:23.629Z,20.34
2023-05-12T14:51:26.036Z,20.34
2023-05-12T14:54:28.393Z,20.53
2023-05-12T14:57:33.283Z,20.83
2023-05-12T15:01:06.285Z,20.71
2023-05-12T15:04:12.519Z,20.56
2023-05-12T15:07:44.673Z,20.40
2023-05-12T15:10:50.446Z,20.30
2023-05-12T15:13:55.468Z,20.22
2023-05-12T15:16:57.675Z,20.09
2023-05-12T15:20:08.265Z,20.03
2023-05-12T15:23:19.838Z,20.05
2023-05-12T15:26:32.779Z,19.95
2023-05-12T15:29:41.061Z,19.91
2023-05-12T15:32:43.280Z,19.88
2023-05-12T15:35:45.509Z,19.87
2023-05-12T15:38:47.579Z,19.80
2023-05-12T15:41:50.636Z,19.77
2023-05-12T15:44:55.021Z,19.87
2023-05-12T15:48:00.847Z,19.84
2023-05-12T15:51:07.929Z,19.79
2023-05-12T15:54:13.020Z,19.68
2023-05-12T15:57:16.174Z,19.75
2023-05-12T16:00:18.703Z,19.72
2023-05-12T16:09:01.464Z,19.69
2023-05-12T16:12:05.927Z,19.66
2023-05-12T16:23:06.770Z,19.43
2023-05-12T16:26:13.176Z,19.43
2023-05-12T16:29:15.636Z,19.44
2023-05-12T16:37:26.709Z,19.28
2023-05-12T16:41:14.552Z,19.20
2023-05-12T16:44:33.586Z,19.24
2023-05-12T16:48:51.521Z,19.21
2023-05-12T16:51:57.524Z,19.19
2023-05-12T16:55:03.028Z,19.20
2023-05-12T16:58:05.541Z,19.19
2023-05-12T17:01:08.601Z,19.11
2023-05-12T17:04:12.860Z,19.15
2023-05-12T17:07:23.986Z,19.10
2023-05-12T17:10:34.492Z,19.03
2023-05-12T17:13:38.311Z,18.99
2023-05-12T17:16:40.786Z,18.95
2023-05-12T17:19:45.119Z,18.95
2023-05-12T17:22:50.481Z,18.97
2023-05-12T17:25:53.600Z,18.99
2023-05-12T17:28:57.353Z,19.66
2023-05-12T17:32:02.542Z,20.14
2023-05-12T17:35:05.223Z,20.66
2023-05-12T17:38:07.972Z,21.15
2023-05-12T17:41:10.523Z,20.59
2023-05-12T17:44:15.363Z,20.49
2023-05-12T17:47:17.857Z,20.49
2023-05-12T17:50:20.001Z,20.40
2023-05-12T17:53:22.499Z,20.31
2023-05-12T17:56:24.871Z,20.24
2023-05-12T17:59:28.183Z,20.18
2023-05-12T18:02:31.790Z,20.03
2023-05-12T18:05:36.691Z,19.98
2023-05-12T18:08:39.271Z,19.96
2023-05-12T18:11:41.826Z,19.89
2023-05-12T18:14:44.410Z,19.82
2023-05-12T18:17:46.694Z,19.79
2023-05-12T18:20:48.916Z,19.59
2023-05-12T18:23:51.752Z,19.31
2023-05-12T18:26:53.857Z,19.18
2023-05-12T18:29:56.149Z,19.11
2023-05-12T18:32:58.760Z,19.08
2023-05-12T18:36:01.201Z,19.05
2023-05-12T18:39:04.394Z,18.94
2023-05-12T18:42:06.626Z,18.88
2023-05-12T18:45:09.100Z,18.90
2023-05-12T18:48:11.486Z,18.90
2023-05-12T18:51:15.204Z,18.82
2023-05-12T18:54:17.463Z,18.77
2023-05-12T18:57:21.183Z,18.73
2023-05-12T19:00:27.810Z,18.65
2023-05-12T19:03:31.839Z,18.63
2023-05-12T19:06:34.615Z,18.62
2023-05-12T19:09:37.134Z,18.58
2023-05-12T19:12:51.373Z,18.56
2023-05-12T19:15:53.599Z,18.46
2023-05-12T19:18:55.923Z,18.50
2023-05-12T19:21:57.980Z,18.47
2023-05-12T19:25:00.892Z,18.48
2023-05-12T19:28:02.821Z,18.47
2023-05-12T19:31:04.939Z,18.47
2023-05-12T19:34:07.956Z,18.47
2023-05-12T19:37:10.394Z,18.41
2023-05-12T19:40:12.719Z,18.41
2023-05-12T19:43:14.952Z,18.44
2023-05-12T19:46:17.303Z,18.37
2023-05-12T19:49:19.532Z,18.36
2023-05-12T19:52:24.677Z,18.30
2023-05-12T19:55:27.086Z,18.23
2023-05-12T19:58:29.226Z,18.19
2023-05-12T20:01:31.438Z,18.22
2023-05-12T20:04:33.576Z,18.10
2023-05-12T20:07:35.596Z,18.20
2023-05-12T20:10:37.644Z,18.14
2023-05-12T20:13:40.003Z,18.13
2023-05-12T20:16:42.145Z,18.14
2023-05-12T20:19:44.256Z,18.16
2023-05-12T20:22:46.442Z,18.13
2023-05-12T20:25:48.672Z,18.13
2023-05-12T20:28:54.112Z,18.13
2023-05-12T20:31:56.850Z,18.10
2023-05-12T20:34:58.848Z,18.12
2023-05-12T20:38:01.228Z,18.12
2023-05-12T20:41:07.189Z,18.05
2023-05-12T20:44:09.947Z,18.01
2023-05-12T20:47:13.106Z,18.00
2023-05-12T20:50:15.429Z,17.99
2023-05-12T20:53:17.676Z,17.95
2023-05-12T20:56:22.850Z,17.94
2023-05-12T20:59:24.936Z,17.94
2023-05-12T21:02:28.378Z,17.92
2023-05-12T21:05:31.066Z,17.90
2023-05-12T21:08:33.146Z,17.91
2023-05-12T21:11:35.263Z,17.94
2023-05-12T21:14:41.871Z,17.90
2023-05-12T21:17:44.099Z,17.82
2023-05-12T21:20:46.336Z,17.79
2023-05-12T21:23:48.509Z,17.84
2023-05-12T21:26:50.747Z,17.80
2023-05-12T21:29:52.896Z,17.67
2023-05-12T21:32:55.009Z,17.63
2023-05-12T21:35:57.086Z,17.62
2023-05-12T21:38:59.159Z,17.68
2023-05-12T21:42:01.279Z,17.74
2023-05-12T21:45:03.804Z,17.75
2023-05-12T21:48:06.216Z,17.66
2023-05-12T21:51:08.347Z,17.67
2023-05-12T21:54:10.681Z,17.62
2023-05-12T21:57:15.525Z,17.60
2023-05-12T22:00:20.344Z,17.62
2023-05-12T22:03:25.138Z,17.58
2023-05-12T22:06:27.405Z,17.58
2023-05-12T22:09:31.191Z,17.63
2023-05-12T22:12:34.068Z,17.57
2023-05-12T22:15:36.159Z,17.50
2023-05-12T22:18:38.406Z,17.52
2023-05-12T22:21:41.030Z,17.46
2023-05-12T22:24:43.964Z,17.42
2023-05-12T22:27:45.953Z,17.50
2023-05-12T22:30:48.121Z,17.58
2023-05-12T22:33:51.164Z,17.52
2023-05-12T22:36:53.327Z,17.50
2023-05-12T22:39:55.372Z,17.54
2023-05-12T22:42:57.528Z,17.54
2023-05-12T22:46:00.059Z,17.48
2023-05-12T22:49:02.115Z,17.46
2023-05-12T22:52:05.754Z,17.39
2023-05-12T22:55:08.115Z,17.39
2023-05-12T22:58:11.748Z,17.36
2023-05-12T23:01:13.769Z,17.36
2023-05-12T23:04:16.072Z,17.39
2023-05-12T23:07:18.357Z,17.43
2023-05-12T23:10:20.702Z,17.42
2023-05-12T23:13:22.925Z,17.38
2023-05-12T23:16:25.727Z,17.33
2023-05-12T23:19:28.168Z,17.37
2023-05-12T23:22:30.255Z,17.31
2023-05-12T23:25:32.309Z,17.29
2023-05-12T23:28:34.378Z,17.29
2023-05-12T23:31:36.410Z,17.29
2023-05-12T23:34:40.477Z,17.22
2023-05-12T23:37:42.880Z,17.19
2023-05-12T23:40:44.970Z,17.22
2023-05-12T23:43:47.051Z,17.19
2023-05-12T23:46:49.349Z,17.24
2023-05-12T23:49:51.545Z,17.23
2023-05-12T23:52:53.745Z,17.31
2023-05-12T23:55:55.798Z,17.27
2023-05-12T23:58:57.714Z,17.32
